Air Hitam, Indonesia

7:10 PM WIB on May 26, 2017 (GMT +0700)
Polonia | | Change Station

Elev 82 ft 3.57 °N, 98.68 °E | Updated 40 minutes ago

Mostly Cloudy
Mostly Cloudy
84 °F
Feels Like 98 °F
N
7
Wind Variable Wind from ENE

Today
High -- | Low -- °F
--% Chance of Precip.
Yesterday
High -- | Low -- °F
Precip. -- in
Pressure 29.71 in
Visibility 5.0 miles
Clouds Few 1700 ft
Scattered Clouds 1800 ft
Heat Index 98 °F
Dew Point 81 °F
Humidity 89%
Rainfall 0.00 in
Snow Depth Not available.
6:13 AM 6:33 PM
New Moon, 1% visible
METAR WIMM 261130Z 06006KT 8000 TS FEW017CB SCT018 29/27 Q1006
Pressure 29.71 in
Visibility 5.0 miles
Clouds Few 1700 ft
Scattered Clouds 1800 ft
Heat Index 98 °F
Dew Point 81 °F
Humidity 89%
Rainfall 0.00 in
Snow Depth Not available.
6:13 AM 6:33 PM
New Moon, 1% visible
METAR WIMM 261130Z 06006KT 8000 TS FEW017CB SCT018 29/27 Q1006

Get Severe Weather Alerts

Thanks for signing up!

Be on the lookout for a verification email in your inbox.

You'll start receiving the daily forecast at 6 AM.

×

10-Day Weather Forecast

×

Almanac

Astronomy

May. 26, 2017 Rise Set
Actual Time
Civil Twilight
Nautical Twilight
Astronomical Twilight
Moon
Length of Visible Light
Length of Day
Tomorrow will be .
, % of the Moon is Illuminated

Today's Extremes

Country Highs Country Lows

Community

WunderPhotos

Category 6

Welcome to Category 6. This is the collective home for Weather Underground's featured writeups by Dr. Jeff Masters (right), Bob Henson (left), Chris Burt, and other regular contributors.

Nearby

Air Quality

  Air Quality AQ Index Pollutant
Not available.

Snow Depth

Station Depth Elevation

Earthquake Activity

City Distance Mag. Time & Date
Minimum magnitude displayed is 2.5.

Coastal Water Temperatures

Place Temperature

Stations

Nearby Weather Stations

Station Location Temp. Windchill Dew Point Humidity Wind Precip. Elev Updated Type